Pagrindinis puslapis
METAR-TAF:

METAR-TAF

Oro uostai :

Karakasas, Venesuela

platuma: 10-36N, ilguma: 066-59W, Aukštis: 43 m

Dabartinis oras

Ataskaita buvo paskelbta 1 valandą ir 6 minutes, ne 00:02 UTC
Vėjas 9 kt iš Rytų
Temperatūra
Slėgis 1011 hPa

METAR: SVMI 090002Z AUTO 08009KT NCD ///// Q1011

Laikas: 21:08 (01:08 UTC)

Prognozė

Ataskaita buvo paskelbta 3 valandos ir 8 minutes, ne 22:00 UTC
Prognozė galioja nuo 09 metu 00 UTC su 10 metu 00 UTC
Vėjas 5 kt iš Rytų
Matomumas 10 km arba daugiau
Išsisklaidę debesys ne aukštis 10000 ft
Tapsmas
nuo 09 metu 00 UTC su 09 metu 04 UTC
Vėjas 6 kt iš Šiaurės Rytų
Matomumas: 9000 m
Išsisklaidę debesys ne aukštis 1600 ft
Su prošvaistėmis ne aukštis 10000 ft
dulksna

TAF: SVMI 082200Z 0900/1000 09005KT 9999 SCT100 TX30/19Z TN24/08Z BECMG 0900/0904 05006KT 9000 -DZ SCT016 BKN100

Orai ataskaitas ir orų prognozės (METAR, TAF).

turimą stotys yra geltonos ir raudonos taškus žemėlapyje.

Perkelti pele per norėdami pamatyti stoties vardą.

Tada spustelėkite, norėdami matyti oro stebėjimo ir prognozės.

Norėdami pakeisti žemėlapį: spustelėkite ant žalios mygtukų su juodo kryžiaus žemyn,; žalią mygtuką su brūkšneliu, jei norite nutolinti; arba žalių rodyklių gretimoms žemėlapius.


METAR-TAF: